sensor_id;sensor_type;location;lat;lon;timestamp;temperature;humidity
11639;DHT22;5875;35.940;126.892;2024-02-04T00:01:01;6.30;99.90
11639;DHT22;5875;35.940;126.892;2024-02-04T00:03:28;6.40;99.90
11639;DHT22;5875;35.940;126.892;2024-02-04T00:05:55;6.40;99.90
11639;DHT22;5875;35.940;126.892;2024-02-04T00:08:22;6.60;99.90
11639;DHT22;5875;35.940;126.892;2024-02-04T00:10:49;6.80;99.90
11639;DHT22;5875;35.940;126.892;2024-02-04T00:13:20;7.00;99.90
11639;DHT22;5875;35.940;126.892;2024-02-04T00:15:47;7.70;99.90
11639;DHT22;5875;35.940;126.892;2024-02-04T00:18:14;8.50;99.90
11639;DHT22;5875;35.940;126.892;2024-02-04T00:20:41;8.90;99.90
11639;DHT22;5875;35.940;126.892;2024-02-04T00:23:08;9.40;99.90
11639;DHT22;5875;35.940;126.892;2024-02-04T00:25:36;10.00;99.90
11639;DHT22;5875;35.940;126.892;2024-02-04T00:28:03;10.30;99.90
11639;DHT22;5875;35.940;126.892;2024-02-04T00:30:30;10.80;99.90
11639;DHT22;5875;35.940;126.892;2024-02-04T00:32:57;11.40;99.90
11639;DHT22;5875;35.940;126.892;2024-02-04T00:35:29;11.90;99.90
11639;DHT22;5875;35.940;126.892;2024-02-04T00:37:57;12.20;99.90
11639;DHT22;5875;35.940;126.892;2024-02-04T00:40:24;12.80;99.90
11639;DHT22;5875;35.940;126.892;2024-02-04T00:42:52;13.10;99.90
11639;DHT22;5875;35.940;126.892;2024-02-04T00:45:20;13.50;99.90
11639;DHT22;5875;35.940;126.892;2024-02-04T00:47:53;13.60;99.90
11639;DHT22;5875;35.940;126.892;2024-02-04T00:50:20;13.90;99.90
11639;DHT22;5875;35.940;126.892;2024-02-04T00:52:50;14.20;99.90
11639;DHT22;5875;35.940;126.892;2024-02-04T00:55:22;14.50;99.90
11639;DHT22;5875;35.940;126.892;2024-02-04T00:57:49;14.40;99.90
11639;DHT22;5875;35.940;126.892;2024-02-04T01:00:16;14.00;99.90
11639;DHT22;5875;35.940;126.892;2024-02-04T01:02:44;13.80;99.90
11639;DHT22;5875;35.940;126.892;2024-02-04T01:05:11;13.40;99.90
11639;DHT22;5875;35.940;126.892;2024-02-04T01:07:39;13.60;99.90
11639;DHT22;5875;35.940;126.892;2024-02-04T01:10:06;14.40;99.90
11639;DHT22;5875;35.940;126.892;2024-02-04T01:12:33;14.80;99.90
11639;DHT22;5875;35.940;126.892;2024-02-04T01:15:01;14.30;99.90
11639;DHT22;5875;35.940;126.892;2024-02-04T01:17:29;14.00;99.90
11639;DHT22;5875;35.940;126.892;2024-02-04T01:19:57;13.60;99.90
11639;DHT22;5875;35.940;126.892;2024-02-04T01:22:27;13.80;99.90
11639;DHT22;5875;35.940;126.892;2024-02-04T01:24:54;14.40;99.90
11639;DHT22;5875;35.940;126.892;2024-02-04T01:27:24;14.70;99.90
11639;DHT22;5875;35.940;126.892;2024-02-04T01:29:51;15.10;99.90
11639;DHT22;5875;35.940;126.892;2024-02-04T01:32:19;15.50;99.90
11639;DHT22;5875;35.940;126.892;2024-02-04T01:34:46;15.70;99.90
11639;DHT22;5875;35.940;126.892;2024-02-04T01:37:14;16.50;99.90
11639;DHT22;5875;35.940;126.892;2024-02-04T01:39:41;16.40;99.90
11639;DHT22;5875;35.940;126.892;2024-02-04T01:42:08;16.70;99.90
11639;DHT22;5875;35.940;126.892;2024-02-04T01:44:36;17.20;99.90
11639;DHT22;5875;35.940;126.892;2024-02-04T01:47:03;17.00;99.90
11639;DHT22;5875;35.940;126.892;2024-02-04T01:49:31;17.40;99.90
11639;DHT22;5875;35.940;126.892;2024-02-04T01:51:58;17.50;99.90
11639;DHT22;5875;35.940;126.892;2024-02-04T01:54:26;17.60;99.90
11639;DHT22;5875;35.940;126.892;2024-02-04T01:56:53;17.80;99.90
11639;DHT22;5875;35.940;126.892;2024-02-04T01:59:23;18.20;99.90
11639;DHT22;5875;35.940;126.892;2024-02-04T02:02:01;18.30;99.90
11639;DHT22;5875;35.940;126.892;2024-02-04T02:04:28;18.20;99.90
11639;DHT22;5875;35.940;126.892;2024-02-04T02:06:56;18.20;99.90
11639;DHT22;5875;35.940;126.892;2024-02-04T02:09:25;17.50;99.90
11639;DHT22;5875;35.940;126.892;2024-02-04T02:12:14;17.90;99.90
11639;DHT22;5875;35.940;126.892;2024-02-04T02:14:46;18.00;99.90
11639;DHT22;5875;35.940;126.892;2024-02-04T02:17:21;18.20;99.90
11639;DHT22;5875;35.940;126.892;2024-02-04T02:20:12;18.70;99.90
11639;DHT22;5875;35.940;126.892;2024-02-04T02:23:08;18.70;99.90
11639;DHT22;5875;35.940;126.892;2024-02-04T02:25:38;18.40;99.90
11639;DHT22;5875;35.940;126.892;2024-02-04T02:28:07;18.30;99.90
11639;DHT22;5875;35.940;126.892;2024-02-04T02:30:34;18.50;99.90
11639;DHT22;5875;35.940;126.892;2024-02-04T02:33:04;18.10;99.90
11639;DHT22;5875;35.940;126.892;2024-02-04T02:35:35;18.00;99.90
11639;DHT22;5875;35.940;126.892;2024-02-04T02:41:02;18.10;99.90
11639;DHT22;5875;35.940;126.892;2024-02-04T02:43:30;17.70;99.90
11639;DHT22;5875;35.940;126.892;2024-02-04T02:46:01;17.90;99.90
11639;DHT22;5875;35.940;126.892;2024-02-04T02:48:32;17.80;99.90
11639;DHT22;5875;35.940;126.892;2024-02-04T02:51:02;17.80;99.90
11639;DHT22;5875;35.940;126.892;2024-02-04T02:53:29;17.80;99.90
11639;DHT22;5875;35.940;126.892;2024-02-04T02:55:56;17.30;99.90
11639;DHT22;5875;35.940;126.892;2024-02-04T02:58:23;17.30;99.90
11639;DHT22;5875;35.940;126.892;2024-02-04T03:00:50;17.40;99.90
11639;DHT22;5875;35.940;126.892;2024-02-04T03:03:17;17.30;99.90
11639;DHT22;5875;35.940;126.892;2024-02-04T03:05:44;17.20;99.90
11639;DHT22;5875;35.940;126.892;2024-02-04T03:08:11;17.30;99.90
11639;DHT22;5875;35.940;126.892;2024-02-04T03:10:38;17.10;99.90
11639;DHT22;5875;35.940;126.892;2024-02-04T03:13:08;17.30;99.90
11639;DHT22;5875;35.940;126.892;2024-02-04T03:15:35;17.30;99.90
11639;DHT22;5875;35.940;126.892;2024-02-04T03:18:03;17.40;99.90
11639;DHT22;5875;35.940;126.892;2024-02-04T03:20:30;17.30;99.90
11639;DHT22;5875;35.940;126.892;2024-02-04T03:22:57;17.10;99.90
11639;DHT22;5875;35.940;126.892;2024-02-04T03:25:24;17.30;99.90
11639;DHT22;5875;35.940;126.892;2024-02-04T03:27:55;17.40;99.90
11639;DHT22;5875;35.940;126.892;2024-02-04T03:30:22;17.30;99.90
11639;DHT22;5875;35.940;126.892;2024-02-04T03:32:50;17.00;99.90
11639;DHT22;5875;35.940;126.892;2024-02-04T03:35:17;17.30;99.90
11639;DHT22;5875;35.940;126.892;2024-02-04T03:37:44;17.10;99.90
11639;DHT22;5875;35.940;126.892;2024-02-04T03:40:11;16.80;99.90
11639;DHT22;5875;35.940;126.892;2024-02-04T03:42:39;16.90;99.90
11639;DHT22;5875;35.940;126.892;2024-02-04T03:45:07;17.20;99.90
11639;DHT22;5875;35.940;126.892;2024-02-04T03:47:38;17.30;99.90
11639;DHT22;5875;35.940;126.892;2024-02-04T03:50:05;17.00;95.50
11639;DHT22;5875;35.940;126.892;2024-02-04T03:52:33;17.10;96.70
11639;DHT22;5875;35.940;126.892;2024-02-04T03:55:00;17.10;92.20
11639;DHT22;5875;35.940;126.892;2024-02-04T03:57:30;17.30;93.10
11639;DHT22;5875;35.940;126.892;2024-02-04T03:59:57;17.30;78.20
11639;DHT22;5875;35.940;126.892;2024-02-04T04:02:24;17.10;70.00
11639;DHT22;5875;35.940;126.892;2024-02-04T04:04:51;17.20;67.90
11639;DHT22;5875;35.940;126.892;2024-02-04T04:07:18;17.10;54.60
11639;DHT22;5875;35.940;126.892;2024-02-04T04:09:45;16.70;48.50
11639;DHT22;5875;35.940;126.892;2024-02-04T04:12:12;16.00;41.00
11639;DHT22;5875;35.940;126.892;2024-02-04T04:14:39;16.70;51.80
11639;DHT22;5875;35.940;126.892;2024-02-04T04:17:06;16.90;50.20
11639;DHT22;5875;35.940;126.892;2024-02-04T04:19:33;17.00;49.00
11639;DHT22;5875;35.940;126.892;2024-02-04T04:22:02;16.30;33.90
11639;DHT22;5875;35.940;126.892;2024-02-04T04:24:30;16.70;40.20
11639;DHT22;5875;35.940;126.892;2024-02-04T04:26:57;17.00;41.70
11639;DHT22;5875;35.940;126.892;2024-02-04T04:29:24;17.30;40.20
11639;DHT22;5875;35.940;126.892;2024-02-04T04:31:55;17.30;40.30
11639;DHT22;5875;35.940;126.892;2024-02-04T04:34:22;17.20;34.60
11639;DHT22;5875;35.940;126.892;2024-02-04T04:36:52;17.20;30.90
11639;DHT22;5875;35.940;126.892;2024-02-04T04:39:19;17.00;28.70
11639;DHT22;5875;35.940;126.892;2024-02-04T04:41:46;16.90;29.70
11639;DHT22;5875;35.940;126.892;2024-02-04T04:44:13;16.70;25.80
11639;DHT22;5875;35.940;126.892;2024-02-04T04:46:41;16.60;27.70
11639;DHT22;5875;35.940;126.892;2024-02-04T04:49:09;16.80;32.40
11639;DHT22;5875;35.940;126.892;2024-02-04T04:51:36;17.00;32.90
11639;DHT22;5875;35.940;126.892;2024-02-04T04:54:03;16.80;28.90
11639;DHT22;5875;35.940;126.892;2024-02-04T04:56:30;16.90;27.20
11639;DHT22;5875;35.940;126.892;2024-02-04T04:58:57;17.20;29.00
11639;DHT22;5875;35.940;126.892;2024-02-04T05:01:28;17.20;29.20
11639;DHT22;5875;35.940;126.892;2024-02-04T05:03:55;17.40;28.00
11639;DHT22;5875;35.940;126.892;2024-02-04T05:06:22;17.00;16.40
11639;DHT22;5875;35.940;126.892;2024-02-04T05:08:49;16.00;11.80
11639;DHT22;5875;35.940;126.892;2024-02-04T05:11:16;15.90;12.40
11639;DHT22;5875;35.940;126.892;2024-02-04T05:13:43;15.80;13.70
11639;DHT22;5875;35.940;126.892;2024-02-04T05:16:10;16.00;14.70
11639;DHT22;5875;35.940;126.892;2024-02-04T05:18:37;16.00;13.50
11639;DHT22;5875;35.940;126.892;2024-02-04T05:21:05;16.20;13.80
11639;DHT22;5875;35.940;126.892;2024-02-04T05:23:32;16.00;14.10
11639;DHT22;5875;35.940;126.892;2024-02-04T05:26:03;16.00;13.90
11639;DHT22;5875;35.940;126.892;2024-02-04T05:28:31;15.80;11.60
11639;DHT22;5875;35.940;126.892;2024-02-04T05:31:00;16.10;15.40
11639;DHT22;5875;35.940;126.892;2024-02-04T05:33:27;16.30;17.60
11639;DHT22;5875;35.940;126.892;2024-02-04T05:35:55;16.30;19.20
11639;DHT22;5875;35.940;126.892;2024-02-04T05:38:22;16.50;18.20
11639;DHT22;5875;35.940;126.892;2024-02-04T05:40:49;16.50;19.50
11639;DHT22;5875;35.940;126.892;2024-02-04T05:43:16;16.30;18.10
11639;DHT22;5875;35.940;126.892;2024-02-04T05:45:43;16.10;18.60
11639;DHT22;5875;35.940;126.892;2024-02-04T05:48:11;16.20;17.20
11639;DHT22;5875;35.940;126.892;2024-02-04T05:50:41;16.20;18.80
11639;DHT22;5875;35.940;126.892;2024-02-04T05:53:08;16.20;17.00
11639;DHT22;5875;35.940;126.892;2024-02-04T05:55:35;16.50;14.50
11639;DHT22;5875;35.940;126.892;2024-02-04T05:58:02;16.70;18.40
11639;DHT22;5875;35.940;126.892;2024-02-04T06:00:32;16.80;15.40
11639;DHT22;5875;35.940;126.892;2024-02-04T06:02:59;17.00;12.70
11639;DHT22;5875;35.940;126.892;2024-02-04T06:05:26;17.10;13.20
11639;DHT22;5875;35.940;126.892;2024-02-04T06:07:53;16.90;13.00
11639;DHT22;5875;35.940;126.892;2024-02-04T06:10:20;16.50;11.20
11639;DHT22;5875;35.940;126.892;2024-02-04T06:12:48;16.20;11.30
11639;DHT22;5875;35.940;126.892;2024-02-04T06:15:16;16.00;14.20
11639;DHT22;5875;35.940;126.892;2024-02-04T06:17:43;15.80;11.40
11639;DHT22;5875;35.940;126.892;2024-02-04T06:20:11;15.60;12.60
11639;DHT22;5875;35.940;126.892;2024-02-04T06:22:38;15.40;14.70
11639;DHT22;5875;35.940;126.892;2024-02-04T06:25:05;15.30;14.90
11639;DHT22;5875;35.940;126.892;2024-02-04T06:27:35;15.30;17.30
11639;DHT22;5875;35.940;126.892;2024-02-04T06:30:03;15.30;20.70
11639;DHT22;5875;35.940;126.892;2024-02-04T06:32:33;15.40;19.70
11639;DHT22;5875;35.940;126.892;2024-02-04T06:35:00;15.10;17.80
11639;DHT22;5875;35.940;126.892;2024-02-04T06:37:27;15.10;21.80
11639;DHT22;5875;35.940;126.892;2024-02-04T06:39:54;15.00;23.80
11639;DHT22;5875;35.940;126.892;2024-02-04T06:42:21;14.90;21.50
11639;DHT22;5875;35.940;126.892;2024-02-04T06:44:48;14.80;29.20
11639;DHT22;5875;35.940;126.892;2024-02-04T06:47:15;14.80;26.00
11639;DHT22;5875;35.940;126.892;2024-02-04T06:49:45;14.60;28.30
11639;DHT22;5875;35.940;126.892;2024-02-04T06:52:12;14.50;30.50
11639;DHT22;5875;35.940;126.892;2024-02-04T06:54:40;14.50;34.30
11639;DHT22;5875;35.940;126.892;2024-02-04T06:57:07;14.40;33.00
11639;DHT22;5875;35.940;126.892;2024-02-04T06:59:34;14.40;34.60
11639;DHT22;5875;35.940;126.892;2024-02-04T07:02:01;14.40;33.20
11639;DHT22;5875;35.940;126.892;2024-02-04T07:04:28;14.40;29.50
11639;DHT22;5875;35.940;126.892;2024-02-04T07:06:55;14.50;30.30
11639;DHT22;5875;35.940;126.892;2024-02-04T07:09:22;14.30;26.60
11639;DHT22;5875;35.940;126.892;2024-02-04T07:11:49;14.30;28.40
11639;DHT22;5875;35.940;126.892;2024-02-04T07:14:16;14.30;37.30
11639;DHT22;5875;35.940;126.892;2024-02-04T07:16:43;14.10;42.30
11639;DHT22;5875;35.940;126.892;2024-02-04T07:19:11;14.00;46.90
11639;DHT22;5875;35.940;126.892;2024-02-04T07:21:38;14.10;52.20
11639;DHT22;5875;35.940;126.892;2024-02-04T07:26:32;14.00;43.80
11639;DHT22;5875;35.940;126.892;2024-02-04T07:28:59;13.80;50.50
11639;DHT22;5875;35.940;126.892;2024-02-04T07:31:29;13.70;52.70
11639;DHT22;5875;35.940;126.892;2024-02-04T07:33:56;13.70;50.10
11639;DHT22;5875;35.940;126.892;2024-02-04T07:36:23;13.60;52.70
11639;DHT22;5875;35.940;126.892;2024-02-04T07:38:50;13.50;54.80
11639;DHT22;5875;35.940;126.892;2024-02-04T07:41:17;13.60;58.40
11639;DHT22;5875;35.940;126.892;2024-02-04T07:43:44;13.60;61.00
11639;DHT22;5875;35.940;126.892;2024-02-04T07:46:12;13.50;67.00
11639;DHT22;5875;35.940;126.892;2024-02-04T07:48:39;13.40;72.30
11639;DHT22;5875;35.940;126.892;2024-02-04T07:51:07;13.40;80.20
11639;DHT22;5875;35.940;126.892;2024-02-04T07:53:37;13.30;79.70
11639;DHT22;5875;35.940;126.892;2024-02-04T07:56:08;13.30;90.30
11639;DHT22;5875;35.940;126.892;2024-02-04T07:58:37;13.30;94.40
11639;DHT22;5875;35.940;126.892;2024-02-04T08:01:04;13.30;95.50
11639;DHT22;5875;35.940;126.892;2024-02-04T08:03:31;13.10;95.00
11639;DHT22;5875;35.940;126.892;2024-02-04T08:06:01;13.10;99.70
11639;DHT22;5875;35.940;126.892;2024-02-04T08:08:28;13.00;96.90
11639;DHT22;5875;35.940;126.892;2024-02-04T08:10:55;12.90;97.00
11639;DHT22;5875;35.940;126.892;2024-02-04T08:13:23;12.90;99.40
11639;DHT22;5875;35.940;126.892;2024-02-04T08:15:50;12.80;99.90
11639;DHT22;5875;35.940;126.892;2024-02-04T08:18:17;12.70;99.90
11639;DHT22;5875;35.940;126.892;2024-02-04T08:20:44;12.60;99.90
11639;DHT22;5875;35.940;126.892;2024-02-04T08:23:11;12.60;99.90
11639;DHT22;5875;35.940;126.892;2024-02-04T08:25:38;12.50;99.90
11639;DHT22;5875;35.940;126.892;2024-02-04T08:28:05;12.50;99.90
11639;DHT22;5875;35.940;126.892;2024-02-04T08:30:35;12.50;99.90
11639;DHT22;5875;35.940;126.892;2024-02-04T08:33:02;12.30;99.90
11639;DHT22;5875;35.940;126.892;2024-02-04T08:35:30;12.20;99.90
11639;DHT22;5875;35.940;126.892;2024-02-04T08:37:57;12.20;99.90
11639;DHT22;5875;35.940;126.892;2024-02-04T08:40:26;12.10;99.90
11639;DHT22;5875;35.940;126.892;2024-02-04T08:42:53;12.00;99.90
11639;DHT22;5875;35.940;126.892;2024-02-04T08:45:21;11.90;99.90
11639;DHT22;5875;35.940;126.892;2024-02-04T08:47:48;11.80;99.90
11639;DHT22;5875;35.940;126.892;2024-02-04T08:50:18;11.80;99.90
11639;DHT22;5875;35.940;126.892;2024-02-04T08:52:45;11.80;99.90
11639;DHT22;5875;35.940;126.892;2024-02-04T08:55:12;11.80;99.90
11639;DHT22;5875;35.940;126.892;2024-02-04T08:57:39;11.70;99.90
11639;DHT22;5875;35.940;126.892;2024-02-04T09:00:07;11.60;99.90
11639;DHT22;5875;35.940;126.892;2024-02-04T09:02:37;11.60;99.90
11639;DHT22;5875;35.940;126.892;2024-02-04T09:05:05;11.60;99.90
11639;DHT22;5875;35.940;126.892;2024-02-04T09:07:32;11.60;99.90
11639;DHT22;5875;35.940;126.892;2024-02-04T09:09:59;11.60;99.90
11639;DHT22;5875;35.940;126.892;2024-02-04T09:12:26;11.50;99.90
11639;DHT22;5875;35.940;126.892;2024-02-04T09:14:53;11.50;99.90
11639;DHT22;5875;35.940;126.892;2024-02-04T09:17:21;11.40;99.90
11639;DHT22;5875;35.940;126.892;2024-02-04T09:19:48;11.40;99.90
11639;DHT22;5875;35.940;126.892;2024-02-04T09:22:15;11.30;99.90
11639;DHT22;5875;35.940;126.892;2024-02-04T09:24:43;11.30;99.90
11639;DHT22;5875;35.940;126.892;2024-02-04T09:27:10;11.20;99.90
11639;DHT22;5875;35.940;126.892;2024-02-04T09:29:37;11.20;99.90
11639;DHT22;5875;35.940;126.892;2024-02-04T09:32:04;11.20;99.90
11639;DHT22;5875;35.940;126.892;2024-02-04T09:34:32;11.20;99.90
11639;DHT22;5875;35.940;126.892;2024-02-04T09:36:59;11.10;99.90
11639;DHT22;5875;35.940;126.892;2024-02-04T09:39:27;11.10;99.90
11639;DHT22;5875;35.940;126.892;2024-02-04T09:41:56;11.10;99.90
11639;DHT22;5875;35.940;126.892;2024-02-04T09:44:23;11.00;99.90
11639;DHT22;5875;35.940;126.892;2024-02-04T09:46:51;10.90;99.90
11639;DHT22;5875;35.940;126.892;2024-02-04T09:49:18;10.90;99.90
11639;DHT22;5875;35.940;126.892;2024-02-04T09:51:45;10.90;99.90
11639;DHT22;5875;35.940;126.892;2024-02-04T09:54:14;10.90;99.90
11639;DHT22;5875;35.940;126.892;2024-02-04T09:56:43;10.80;99.90
11639;DHT22;5875;35.940;126.892;2024-02-04T09:59:11;10.80;99.90
11639;DHT22;5875;35.940;126.892;2024-02-04T10:01:39;10.80;99.90
11639;DHT22;5875;35.940;126.892;2024-02-04T10:04:06;10.70;99.90
11639;DHT22;5875;35.940;126.892;2024-02-04T10:06:33;10.70;99.90
11639;DHT22;5875;35.940;126.892;2024-02-04T10:09:01;10.70;99.90
11639;DHT22;5875;35.940;126.892;2024-02-04T10:11:28;10.60;99.90
11639;DHT22;5875;35.940;126.892;2024-02-04T10:13:55;10.60;99.90
11639;DHT22;5875;35.940;126.892;2024-02-04T10:16:22;10.60;99.90
11639;DHT22;5875;35.940;126.892;2024-02-04T10:18:49;10.60;99.90
11639;DHT22;5875;35.940;126.892;2024-02-04T10:21:21;10.60;99.90
11639;DHT22;5875;35.940;126.892;2024-02-04T10:23:50;10.50;99.90
11639;DHT22;5875;35.940;126.892;2024-02-04T10:26:18;10.60;99.90
11639;DHT22;5875;35.940;126.892;2024-02-04T10:28:48;10.60;99.90
11639;DHT22;5875;35.940;126.892;2024-02-04T10:31:16;10.60;99.90
11639;DHT22;5875;35.940;126.892;2024-02-04T10:33:43;10.60;99.90
11639;DHT22;5875;35.940;126.892;2024-02-04T10:36:10;10.50;99.90
11639;DHT22;5875;35.940;126.892;2024-02-04T10:38:37;10.50;99.90
11639;DHT22;5875;35.940;126.892;2024-02-04T10:41:04;10.50;99.90
11639;DHT22;5875;35.940;126.892;2024-02-04T10:43:34;10.50;99.90
11639;DHT22;5875;35.940;126.892;2024-02-04T10:46:16;10.40;99.90
11639;DHT22;5875;35.940;126.892;2024-02-04T10:48:50;10.40;99.90
11639;DHT22;5875;35.940;126.892;2024-02-04T10:51:19;10.40;99.90
11639;DHT22;5875;35.940;126.892;2024-02-04T10:53:49;10.30;99.90
11639;DHT22;5875;35.940;126.892;2024-02-04T10:56:36;10.30;99.90
11639;DHT22;5875;35.940;126.892;2024-02-04T10:59:04;10.40;99.90
11639;DHT22;5875;35.940;126.892;2024-02-04T11:01:32;10.30;99.90
11639;DHT22;5875;35.940;126.892;2024-02-04T11:04:00;10.30;99.90
11639;DHT22;5875;35.940;126.892;2024-02-04T11:06:27;10.30;99.90
11639;DHT22;5875;35.940;126.892;2024-02-04T11:08:56;10.30;99.90
11639;DHT22;5875;35.940;126.892;2024-02-04T11:11:25;10.20;99.90
11639;DHT22;5875;35.940;126.892;2024-02-04T11:13:59;10.30;99.90
11639;DHT22;5875;35.940;126.892;2024-02-04T11:16:39;10.20;99.90
11639;DHT22;5875;35.940;126.892;2024-02-04T11:22:30;10.20;99.90
11639;DHT22;5875;35.940;126.892;2024-02-04T11:28:05;10.10;99.90
11639;DHT22;5875;35.940;126.892;2024-02-04T11:30:35;10.10;99.90
11639;DHT22;5875;35.940;126.892;2024-02-04T11:33:12;10.10;99.90
11639;DHT22;5875;35.940;126.892;2024-02-04T11:35:40;10.10;99.90
11639;DHT22;5875;35.940;126.892;2024-02-04T11:38:07;10.10;99.90
11639;DHT22;5875;35.940;126.892;2024-02-04T11:40:36;10.10;99.90
11639;DHT22;5875;35.940;126.892;2024-02-04T11:43:05;10.10;99.90
11639;DHT22;5875;35.940;126.892;2024-02-04T11:45:33;10.10;99.90
11639;DHT22;5875;35.940;126.892;2024-02-04T11:48:07;10.10;99.90
11639;DHT22;5875;35.940;126.892;2024-02-04T11:50:35;10.00;99.90
11639;DHT22;5875;35.940;126.892;2024-02-04T11:53:07;9.90;99.90
11639;DHT22;5875;35.940;126.892;2024-02-04T11:55:35;10.00;99.90
11639;DHT22;5875;35.940;126.892;2024-02-04T11:58:07;9.90;99.90
11639;DHT22;5875;35.940;126.892;2024-02-04T12:00:41;9.90;99.90
11639;DHT22;5875;35.940;126.892;2024-02-04T12:03:09;9.90;99.90
11639;DHT22;5875;35.940;126.892;2024-02-04T12:05:37;9.80;99.90
11639;DHT22;5875;35.940;126.892;2024-02-04T12:08:06;9.80;99.90
11639;DHT22;5875;35.940;126.892;2024-02-04T12:10:35;9.80;99.90
11639;DHT22;5875;35.940;126.892;2024-02-04T12:13:03;9.80;99.90
11639;DHT22;5875;35.940;126.892;2024-02-04T12:15:31;9.80;99.90
11639;DHT22;5875;35.940;126.892;2024-02-04T12:18:11;9.70;99.90
11639;DHT22;5875;35.940;126.892;2024-02-04T12:20:40;9.70;99.90
11639;DHT22;5875;35.940;126.892;2024-02-04T12:23:08;9.60;99.90
11639;DHT22;5875;35.940;126.892;2024-02-04T12:25:36;9.60;99.90
11639;DHT22;5875;35.940;126.892;2024-02-04T12:28:03;9.60;99.90
11639;DHT22;5875;35.940;126.892;2024-02-04T12:30:32;9.50;99.90
11639;DHT22;5875;35.940;126.892;2024-02-04T12:33:02;9.50;99.90
11639;DHT22;5875;35.940;126.892;2024-02-04T12:35:31;9.50;99.90
11639;DHT22;5875;35.940;126.892;2024-02-04T12:37:59;9.40;99.90
11639;DHT22;5875;35.940;126.892;2024-02-04T12:40:28;9.30;99.90
11639;DHT22;5875;35.940;126.892;2024-02-04T12:42:59;9.30;99.90
11639;DHT22;5875;35.940;126.892;2024-02-04T12:45:28;9.30;99.90
11639;DHT22;5875;35.940;126.892;2024-02-04T12:47:58;9.20;99.90
11639;DHT22;5875;35.940;126.892;2024-02-04T12:50:26;9.20;99.90
11639;DHT22;5875;35.940;126.892;2024-02-04T12:53:07;9.20;99.90
11639;DHT22;5875;35.940;126.892;2024-02-04T12:55:36;9.20;99.90
11639;DHT22;5875;35.940;126.892;2024-02-04T12:58:12;9.10;99.90
11639;DHT22;5875;35.940;126.892;2024-02-04T13:00:44;9.10;99.90
11639;DHT22;5875;35.940;126.892;2024-02-04T13:03:16;9.10;99.90
11639;DHT22;5875;35.940;126.892;2024-02-04T13:05:46;9.10;99.90
11639;DHT22;5875;35.940;126.892;2024-02-04T13:08:14;9.10;99.90
11639;DHT22;5875;35.940;126.892;2024-02-04T13:10:54;9.10;99.90
11639;DHT22;5875;35.940;126.892;2024-02-04T13:13:24;9.00;99.90
11639;DHT22;5875;35.940;126.892;2024-02-04T13:15:55;9.00;99.90
11639;DHT22;5875;35.940;126.892;2024-02-04T13:18:23;9.00;99.90
11639;DHT22;5875;35.940;126.892;2024-02-04T13:20:50;9.00;99.90
11639;DHT22;5875;35.940;126.892;2024-02-04T13:23:17;8.90;99.90
11639;DHT22;5875;35.940;126.892;2024-02-04T13:25:44;8.90;99.90
11639;DHT22;5875;35.940;126.892;2024-02-04T13:28:13;8.90;99.90
11639;DHT22;5875;35.940;126.892;2024-02-04T13:30:40;8.90;99.90
11639;DHT22;5875;35.940;126.892;2024-02-04T13:33:07;8.90;99.90
11639;DHT22;5875;35.940;126.892;2024-02-04T13:35:35;8.80;99.90
11639;DHT22;5875;35.940;126.892;2024-02-04T13:38:02;8.80;99.90
11639;DHT22;5875;35.940;126.892;2024-02-04T13:40:30;8.80;99.90
11639;DHT22;5875;35.940;126.892;2024-02-04T13:42:57;8.80;99.90
11639;DHT22;5875;35.940;126.892;2024-02-04T13:45:24;8.70;99.90
11639;DHT22;5875;35.940;126.892;2024-02-04T13:47:51;8.70;99.90
11639;DHT22;5875;35.940;126.892;2024-02-04T13:50:18;8.70;99.90
11639;DHT22;5875;35.940;126.892;2024-02-04T13:52:46;8.60;99.90
11639;DHT22;5875;35.940;126.892;2024-02-04T13:55:13;8.60;99.90
11639;DHT22;5875;35.940;126.892;2024-02-04T13:57:40;8.60;99.90
11639;DHT22;5875;35.940;126.892;2024-02-04T14:00:08;8.50;99.90
11639;DHT22;5875;35.940;126.892;2024-02-04T14:02:35;8.50;99.90
11639;DHT22;5875;35.940;126.892;2024-02-04T14:05:04;8.50;99.90
11639;DHT22;5875;35.940;126.892;2024-02-04T14:07:32;8.40;99.90
11639;DHT22;5875;35.940;126.892;2024-02-04T14:09:59;8.40;99.90
11639;DHT22;5875;35.940;126.892;2024-02-04T14:12:27;8.40;99.90
11639;DHT22;5875;35.940;126.892;2024-02-04T14:14:55;8.40;99.90
11639;DHT22;5875;35.940;126.892;2024-02-04T14:17:22;8.30;99.90
11639;DHT22;5875;35.940;126.892;2024-02-04T14:19:50;8.20;99.90
11639;DHT22;5875;35.940;126.892;2024-02-04T14:22:18;8.20;99.90
11639;DHT22;5875;35.940;126.892;2024-02-04T14:24:46;8.20;99.90
11639;DHT22;5875;35.940;126.892;2024-02-04T14:27:14;8.10;99.90
11639;DHT22;5875;35.940;126.892;2024-02-04T14:29:41;8.10;99.90
11639;DHT22;5875;35.940;126.892;2024-02-04T14:32:08;8.10;99.90
11639;DHT22;5875;35.940;126.892;2024-02-04T14:34:36;8.10;99.90
11639;DHT22;5875;35.940;126.892;2024-02-04T14:37:04;8.00;99.90
11639;DHT22;5875;35.940;126.892;2024-02-04T14:39:31;8.10;99.90
11639;DHT22;5875;35.940;126.892;2024-02-04T14:41:59;8.00;99.90
11639;DHT22;5875;35.940;126.892;2024-02-04T14:44:26;8.00;99.90
11639;DHT22;5875;35.940;126.892;2024-02-04T14:46:53;8.00;99.90
11639;DHT22;5875;35.940;126.892;2024-02-04T14:49:20;8.00;99.90
11639;DHT22;5875;35.940;126.892;2024-02-04T14:51:48;8.00;99.90
11639;DHT22;5875;35.940;126.892;2024-02-04T14:54:15;7.90;99.90
11639;DHT22;5875;35.940;126.892;2024-02-04T14:56:42;7.90;99.90
11639;DHT22;5875;35.940;126.892;2024-02-04T14:59:11;7.90;99.90
11639;DHT22;5875;35.940;126.892;2024-02-04T15:01:38;7.90;99.90
11639;DHT22;5875;35.940;126.892;2024-02-04T15:04:05;7.80;99.90
11639;DHT22;5875;35.940;126.892;2024-02-04T15:06:32;7.80;99.90
11639;DHT22;5875;35.940;126.892;2024-02-04T15:09:00;7.80;99.90
11639;DHT22;5875;35.940;126.892;2024-02-04T15:11:27;7.80;99.90
11639;DHT22;5875;35.940;126.892;2024-02-04T15:13:57;7.80;99.90
11639;DHT22;5875;35.940;126.892;2024-02-04T15:16:24;7.80;99.90
11639;DHT22;5875;35.940;126.892;2024-02-04T15:18:52;7.80;99.90
11639;DHT22;5875;35.940;126.892;2024-02-04T15:21:19;7.70;99.90
11639;DHT22;5875;35.940;126.892;2024-02-04T15:23:47;7.80;99.90
11639;DHT22;5875;35.940;126.892;2024-02-04T15:26:15;7.70;99.90
11639;DHT22;5875;35.940;126.892;2024-02-04T15:28:43;7.80;99.90
11639;DHT22;5875;35.940;126.892;2024-02-04T15:31:11;7.70;99.90
11639;DHT22;5875;35.940;126.892;2024-02-04T15:33:39;7.70;99.90
11639;DHT22;5875;35.940;126.892;2024-02-04T15:36:06;7.70;99.90
11639;DHT22;5875;35.940;126.892;2024-02-04T15:38:34;7.70;99.90